Time;durP1;ratioP1;P1;durP2;ratioP2;P2;SDS_P1;SDS_P2;PMS_P1;PMS_P2;Temp;Humidity;BMP_temperature;BMP_pressure;BME280_temperature;BME280_humidity;BME280_pressure;Samples;Min_cycle;Max_cycle;Signal;HPM_P1;HPM_P2
2021/09/27 00:00:00;;;;;;;;;;;17.60;99.90;17.70;99819.00;;;;343407;28;83289;-91
2021/09/27 00:00:30;;;;;;;;;;;17.60;99.90;17.70;99810.00;;;;341683;28;91646;-90
2021/09/27 00:00:45;;;;;;;;;;;17.60;99.90;17.80;99809.00;;;;341799;28;83311;-91
2021/09/27 00:00:59;;;;;;;;;;;17.60;99.90;17.80;99802.00;;;;341270;28;91773;-91
2021/09/27 00:01:12;;;;;;;;;;;17.60;99.90;17.80;99817.00;;;;340752;28;82438;-91
2021/09/27 00:01:25;;;;;;;;;;;17.60;99.90;17.70;99808.00;;;;344139;28;89675;-91
2021/09/27 00:01:37;;;;;;;;;;;17.60;99.90;17.80;99813.00;;;;340504;28;83502;-91
2021/09/27 00:01:48;;;;;;;;;;;17.60;99.90;17.90;99811.00;;;;341243;28;90811;-91
2021/09/27 00:02:00;;;;;;;;;;;17.60;99.90;17.80;99806.00;;;;342989;28;83509;-91
2021/09/27 00:02:13;;;;;;;;;;;17.60;99.90;17.80;99805.00;;;;341363;28;89407;-90
2021/09/27 00:02:24;;;;;;;;;;;17.60;99.90;17.80;99803.00;;;;341578;28;83557;-91
2021/09/27 00:02:36;;;;;;;;;;;17.60;99.90;17.80;99811.00;;;;342480;28;90160;-91
2021/09/27 00:02:48;;;;;;;;;;;17.60;99.90;17.70;99807.00;;;;344688;28;83350;-91
2021/09/27 00:03:00;;;;;;;;;;;17.60;99.90;17.70;99804.00;;;;342775;28;90468;-91
2021/09/27 00:03:12;;;;;;;;;;;17.60;99.90;17.70;99808.00;;;;341994;28;83494;-91
2021/09/27 00:03:24;;;;;;;;;;;17.60;99.90;17.70;99819.00;;;;344029;28;89770;-91
2021/09/27 00:03:36;;;;;;;;;;;17.60;99.90;17.60;99802.00;;;;344730;28;83390;-91
2021/09/27 00:03:48;;;;;;;;;;;17.60;99.90;17.70;99810.00;;;;342526;28;90004;-91
2021/09/27 00:03:59;;;;;;;;;;;17.60;99.90;17.70;99808.00;;;;343273;28;83581;-91
2021/09/27 00:04:11;;;;;;;;;;;17.60;99.90;17.70;99811.00;;;;344279;28;91275;-91
2021/09/27 00:04:23;;;;;;;;;;;17.60;99.90;17.60;99809.00;;;;343248;28;83410;-91
2021/09/27 00:04:35;;;;;;;;;;;17.60;99.90;17.60;99811.00;;;;342789;28;89890;-91
2021/09/27 00:04:47;;;;;;;;;;;17.60;99.90;17.60;99808.00;;;;343139;28;83453;-91
2021/09/27 00:04:58;;;;;;;;;;;17.60;99.90;17.60;99813.00;;;;344051;28;90871;-91
2021/09/27 00:05:12;;;;;;;;;;;17.60;99.90;17.60;99808.00;;;;344437;28;83467;-91
2021/09/27 00:05:25;;;;;;;;;;;17.50;99.90;17.60;99817.00;;;;341524;28;89892;-91
2021/09/27 00:05:37;;;;;;;;;;;17.60;99.90;17.60;99809.00;;;;344607;28;84059;-91
2021/09/27 00:05:49;;;;;;;;;;;17.50;99.90;17.60;99812.00;;;;341267;28;89488;-91
2021/09/27 00:06:00;;;;;;;;;;;17.50;99.90;17.60;99818.00;;;;345571;28;84025;-91
2021/09/27 00:06:13;;;;;;;;;;;17.50;99.90;17.70;99813.00;;;;341642;28;91339;-91
2021/09/27 00:06:24;;;;;;;;;;;17.50;99.90;17.70;99813.00;;;;343085;28;82598;-91
2021/09/27 00:06:36;;;;;;;;;;;17.50;99.90;17.70;99819.00;;;;342771;28;90649;-91
2021/09/27 00:06:48;;;;;;;;;;;17.50;99.90;17.70;99812.00;;;;343125;28;82634;-91
2021/09/27 00:07:00;;;;;;;;;;;17.50;99.90;17.80;99808.00;;;;342498;28;91637;-91
2021/09/27 00:07:12;;;;;;;;;;;17.50;99.90;17.80;99818.00;;;;341920;28;83380;-89
2021/09/27 00:07:23;;;;;;;;;;;17.50;99.90;17.90;99809.00;;;;345437;28;89552;-91
2021/09/27 00:07:35;;;;;;;;;;;17.50;99.90;17.90;99817.00;;;;343382;28;83379;-91
2021/09/27 00:07:47;;;;;;;;;;;17.60;99.90;17.90;99809.00;;;;345289;28;90601;-90
2021/09/27 00:07:59;;;;;;;;;;;17.60;99.90;17.90;99818.00;;;;343213;28;83271;-91
2021/09/27 00:08:11;;;;;;;;;;;17.60;99.90;17.90;99817.00;;;;341609;28;91159;-91
2021/09/27 00:08:23;;;;;;;;;;;17.50;99.90;17.90;99811.00;;;;344347;28;82661;-91
2021/09/27 00:08:35;;;;;;;;;;;17.60;99.90;17.90;99805.00;;;;341412;28;90888;-91
2021/09/27 00:08:46;;;;;;;;;;;17.60;99.90;17.80;99808.00;;;;341815;28;83405;-91
2021/09/27 00:08:58;;;;;;;;;;;17.60;99.90;17.80;99812.00;;;;342660;28;91728;-91
2021/09/27 00:09:10;;;;;;;;;;;17.60;99.90;17.80;99808.00;;;;344504;28;83639;-91
2021/09/27 00:09:22;;;;;;;;;;;17.60;99.90;17.80;99817.00;;;;342742;28;91153;-91
2021/09/27 00:09:34;;;;;;;;;;;17.60;99.90;17.90;99809.00;;;;342061;28;82221;-91
2021/09/27 00:09:46;;;;;;;;;;;17.60;99.90;17.90;99810.00;;;;340149;28;91739;-90
2021/09/27 00:09:58;;;;;;;;;;;17.60;99.90;17.90;99806.00;;;;341911;28;82840;-91
2021/09/27 00:10:11;;;;;;;;;;;17.60;99.90;17.90;99806.00;;;;341665;28;91798;-91
2021/09/27 00:10:29;;;;;;;;;;;17.60;99.90;17.90;99806.00;;;;343316;28;83335;-91
2021/09/27 00:10:47;;;;;;;;;;;17.60;99.90;18.00;99802.00;;;;341650;28;90314;-91
2021/09/27 00:11:20;;;;;;;;;;;17.60;99.90;17.90;99804.00;;;;341898;28;82569;-91
2021/09/27 00:11:32;;;;;;;;;;;17.70;99.90;17.60;99811.00;;;;342348;28;92391;-91
2021/09/27 00:11:44;;;;;;;;;;;17.60;99.90;17.60;99813.00;;;;343313;28;83446;-91
2021/09/27 00:11:56;;;;;;;;;;;17.60;99.90;17.50;99805.00;;;;343913;28;90467;-91
2021/09/27 00:12:10;;;;;;;;;;;17.60;99.90;17.50;99805.00;;;;343417;28;83529;-91
2021/09/27 00:12:22;;;;;;;;;;;17.60;99.90;17.50;99810.00;;;;341494;28;91800;-91
2021/09/27 00:12:34;;;;;;;;;;;17.60;99.90;17.50;99817.00;;;;341939;28;83480;-91
2021/09/27 00:12:46;;;;;;;;;;;17.60;99.90;17.40;99807.00;;;;342673;28;90651;-91
2021/09/27 00:12:58;;;;;;;;;;;17.60;99.90;17.40;99811.00;;;;341810;28;83472;-91
2021/09/27 00:13:10;;;;;;;;;;;17.60;99.90;17.50;99812.00;;;;340202;28;90303;-91
2021/09/27 00:13:22;;;;;;;;;;;17.60;99.90;17.50;99807.00;;;;342115;28;83443;-91
2021/09/27 00:13:36;;;;;;;;;;;17.60;99.90;17.50;99818.00;;;;341455;28;91002;-91
2021/09/27 00:13:51;;;;;;;;;;;17.50;99.90;17.50;99809.00;;;;341785;28;82592;-91
2021/09/27 00:14:03;;;;;;;;;;;17.50;99.90;17.50;99804.00;;;;341363;28;90505;-91
2021/09/27 00:14:15;;;;;;;;;;;17.50;99.90;17.50;99810.00;;;;343215;28;82588;-91
2021/09/27 00:14:27;;;;;;;;;;;17.50;99.90;17.40;99811.00;;;;342432;28;91205;-91
2021/09/27 00:14:39;;;;;;;;;;;17.50;99.90;17.50;99813.00;;;;344511;28;83487;-91
2021/09/27 00:14:51;;;;;;;;;;;17.50;99.90;17.50;99807.00;;;;344048;28;90621;-91
2021/09/27 00:15:04;;;;;;;;;;;17.50;99.90;17.50;99806.00;;;;344662;28;83472;-91
2021/09/27 00:15:23;;;;;;;;;;;17.50;99.90;17.70;99813.00;;;;341259;28;89804;-91
2021/09/27 00:15:37;;;;;;;;;;;17.50;99.90;17.60;99796.00;;;;341679;28;83532;-91
2021/09/27 00:15:50;;;;;;;;;;;17.50;99.90;17.50;99812.00;;;;342705;28;90687;-92
2021/09/27 00:16:03;;;;;;;;;;;17.50;99.90;17.60;99819.00;;;;341962;28;83402;-91
2021/09/27 00:16:15;;;;;;;;;;;17.50;99.90;17.60;99808.00;;;;343041;28;90438;-91
2021/09/27 00:16:27;;;;;;;;;;;17.50;99.90;17.60;99808.00;;;;340555;28;82569;-91
2021/09/27 00:16:39;;;;;;;;;;;17.50;99.90;17.60;99799.00;;;;341427;28;90275;-91
2021/09/27 00:16:51;;;;;;;;;;;17.50;99.90;17.70;99801.00;;;;343371;28;83435;-91
2021/09/27 00:17:07;;;;;;;;;;;17.50;99.90;17.70;99805.00;;;;342866;28;92264;-91
2021/09/27 00:17:18;;;;;;;;;;;17.50;99.90;17.60;99811.00;;;;344546;28;83503;-91
2021/09/27 00:17:30;;;;;;;;;;;17.50;99.90;17.60;99805.00;;;;342375;28;89190;-90
2021/09/27 00:17:42;;;;;;;;;;;17.50;99.90;17.50;99810.00;;;;343115;28;83466;-91
2021/09/27 00:17:54;;;;;;;;;;;17.50;99.90;17.40;99808.00;;;;341507;28;91646;-91
2021/09/27 00:18:06;;;;;;;;;;;17.50;99.90;17.50;99803.00;;;;342035;28;82527;-91
2021/09/27 00:18:18;;;;;;;;;;;17.50;99.90;17.40;99817.00;;;;340112;28;91023;-92
2021/09/27 00:18:30;;;;;;;;;;;17.50;99.90;17.50;99809.00;;;;343122;28;82559;-91
2021/09/27 00:18:42;;;;;;;;;;;17.50;99.90;17.40;99808.00;;;;341699;28;87870;-91
2021/09/27 00:18:53;;;;;;;;;;;17.40;99.90;17.40;99806.00;;;;341941;28;83420;-91
2021/09/27 00:19:05;;;;;;;;;;;17.50;99.90;17.40;99809.00;;;;345282;28;89847;-91
2021/09/27 00:19:17;;;;;;;;;;;17.50;99.90;17.50;99807.00;;;;341831;28;83477;-90
2021/09/27 00:19:29;;;;;;;;;;;17.50;99.90;17.50;99810.00;;;;341608;28;90439;-91
2021/09/27 00:19:41;;;;;;;;;;;17.40;99.90;17.40;99809.00;;;;344699;28;83398;-91
2021/09/27 00:19:53;;;;;;;;;;;17.40;99.90;17.40;99817.00;;;;342585;28;91901;-91
2021/09/27 00:20:06;;;;;;;;;;;17.50;99.90;17.40;99808.00;;;;340524;28;83570;-91
2021/09/27 00:20:18;;;;;;;;;;;17.40;99.90;17.30;99812.00;;;;341588;28;91257;-90
2021/09/27 00:20:29;;;;;;;;;;;17.40;99.90;17.30;99812.00;;;;340273;28;83553;-91
2021/09/27 00:20:44;;;;;;;;;;;17.40;99.90;17.30;99822.00;;;;340330;28;90371;-91
2021/09/27 00:20:58;;;;;;;;;;;17.40;99.90;17.30;99817.00;;;;343169;28;83563;-91
2021/09/27 00:21:20;;;;;;;;;;;17.40;99.90;17.30;99817.00;;;;341290;28;90584;-91
2021/09/27 00:21:33;;;;;;;;;;;17.40;99.90;17.30;99818.00;;;;343221;28;83605;-92
2021/09/27 00:21:45;;;;;;;;;;;17.40;99.90;17.30;99820.00;;;;342682;28;89484;-91
2021/09/27 00:21:56;;;;;;;;;;;17.40;99.90;17.30;99810.00;;;;341814;28;83566;-91
2021/09/27 00:22:08;;;;;;;;;;;17.40;99.90;17.30;99817.00;;;;342678;28;90467;-91
2021/09/27 00:22:20;;;;;;;;;;;17.40;99.90;17.30;99819.00;;;;343367;28;82499;-91
2021/09/27 00:22:32;;;;;;;;;;;17.30;99.90;17.30;99808.00;;;;342531;28;90634;-91
2021/09/27 00:22:44;;;;;;;;;;;17.30;99.90;17.20;99809.00;;;;342059;28;82537;-91
2021/09/27 00:22:56;;;;;;;;;;;17.30;99.90;17.20;99811.00;;;;342771;28;89598;-91
2021/09/27 00:23:08;;;;;;;;;;;17.30;99.90;17.20;99817.00;;;;343306;28;83280;-91
2021/09/27 00:23:19;;;;;;;;;;;17.30;99.90;17.20;99807.00;;;;344361;28;91610;-92
2021/09/27 00:23:32;;;;;;;;;;;17.30;99.90;17.10;99805.00;;;;342047;28;83417;-91
2021/09/27 00:23:44;;;;;;;;;;;17.30;99.90;17.10;99810.00;;;;345363;28;90521;-91
2021/09/27 00:23:56;;;;;;;;;;;17.30;99.90;17.10;99809.00;;;;340990;28;83505;-91
2021/09/27 00:24:08;;;;;;;;;;;17.30;99.90;17.20;99811.00;;;;344309;28;90010;-91
2021/09/27 00:24:20;;;;;;;;;;;17.30;99.90;17.20;99813.00;;;;342019;28;83420;-91
2021/09/27 00:24:32;;;;;;;;;;;17.30;99.90;17.20;99801.00;;;;342643;28;90769;-92
2021/09/27 00:24:44;;;;;;;;;;;17.30;99.90;17.20;99807.00;;;;340638;28;83396;-91
2021/09/27 00:24:55;;;;;;;;;;;17.30;99.90;17.20;99805.00;;;;342554;28;90487;-92
2021/09/27 00:25:08;;;;;;;;;;;17.30;99.90;17.20;99805.00;;;;343069;28;83548;-91
2021/09/27 00:25:21;;;;;;;;;;;17.30;99.90;17.20;99805.00;;;;342856;28;92093;-92
2021/09/27 00:25:33;;;;;;;;;;;17.20;99.90;17.10;99805.00;;;;343284;28;83330;-91
2021/09/27 00:25:45;;;;;;;;;;;17.20;99.90;17.10;99807.00;;;;342944;28;91506;-91
2021/09/27 00:25:57;;;;;;;;;;;17.20;99.90;17.20;99800.00;;;;341853;28;83495;-91
2021/09/27 00:26:09;;;;;;;;;;;17.20;99.90;17.30;99801.00;;;;342706;28;91362;-92
2021/09/27 00:26:21;;;;;;;;;;;17.20;99.90;17.30;99809.00;;;;343165;28;83524;-91
2021/09/27 00:26:33;;;;;;;;;;;17.20;99.90;17.30;99808.00;;;;343690;28;90660;-91
2021/09/27 00:26:45;;;;;;;;;;;17.20;99.90;17.40;99807.00;;;;344371;28;82591;-91
2021/09/27 00:26:57;;;;;;;;;;;17.20;99.90;17.30;99809.00;;;;341241;28;90760;-91
2021/09/27 00:27:09;;;;;;;;;;;17.20;99.90;17.40;99813.00;;;;341806;28;83596;-91
2021/09/27 00:27:21;;;;;;;;;;;17.20;99.90;17.40;99810.00;;;;341609;28;92369;-91
2021/09/27 00:27:33;;;;;;;;;;;17.20;99.90;17.40;99806.00;;;;342152;28;83676;-91
2021/09/27 00:27:45;;;;;;;;;;;17.20;99.90;17.50;99803.00;;;;341986;28;92106;-91
2021/09/27 00:27:57;;;;;;;;;;;17.20;99.90;17.50;99808.00;;;;342543;28;82468;-91
2021/09/27 00:28:08;;;;;;;;;;;17.20;99.90;17.40;99808.00;;;;341976;28;91496;-91
2021/09/27 00:28:20;;;;;;;;;;;17.20;99.90;17.30;99806.00;;;;342170;28;83531;-91
2021/09/27 00:28:33;;;;;;;;;;;17.20;99.90;17.50;99809.00;;;;341899;28;89479;-91
2021/09/27 00:28:45;;;;;;;;;;;17.20;99.90;17.50;99805.00;;;;342606;28;82677;-91
2021/09/27 00:28:56;;;;;;;;;;;17.20;99.90;17.60;99800.00;;;;340562;28;89541;-91
2021/09/27 00:29:08;;;;;;;;;;;17.20;99.90;17.60;99810.00;;;;342268;28;82570;-91
2021/09/27 00:29:20;;;;;;;;;;;17.20;99.90;17.60;99809.00;;;;341478;28;89541;-91
2021/09/27 00:29:32;;;;;;;;;;;17.20;99.90;17.60;99809.00;;;;341348;28;82434;-90
2021/09/27 00:29:44;;;;;;;;;;;17.30;99.90;17.60;99804.00;;;;341822;28;91555;-91
2021/09/27 00:29:57;;;;;;;;;;;17.30;99.90;17.60;99810.00;;;;344198;28;82623;-91
2021/09/27 00:30:09;;;;;;;;;;;17.30;99.90;17.60;99804.00;;;;343123;28;90526;-91
2021/09/27 00:30:21;;;;;;;;;;;17.30;99.90;17.60;99805.00;;;;343563;28;82590;-91
2021/09/27 00:30:33;;;;;;;;;;;17.30;99.90;17.60;99809.00;;;;341838;28;90491;-91
2021/09/27 00:30:47;;;;;;;;;;;17.30;99.90;17.60;99805.00;;;;340989;28;83398;-92
2021/09/27 00:30:59;;;;;;;;;;;17.30;99.90;17.50;99807.00;;;;343125;28;90563;-90
2021/09/27 00:31:11;;;;;;;;;;;17.30;99.90;17.50;99806.00;;;;342043;28;82708;-91
2021/09/27 00:31:23;;;;;;;;;;;17.30;99.90;17.40;99804.00;;;;341616;28;89515;-91
2021/09/27 00:31:35;;;;;;;;;;;17.30;99.90;17.40;99807.00;;;;341992;28;82490;-91
2021/09/27 00:31:47;;;;;;;;;;;17.30;99.90;17.50;99812.00;;;;341453;28;90342;-91
2021/09/27 00:31:58;;;;;;;;;;;17.30;99.90;17.50;99803.00;;;;340901;28;83411;-91
2021/09/27 00:32:10;;;;;;;;;;;17.30;99.90;17.50;99799.00;;;;341720;28;91499;-91
2021/09/27 00:32:22;;;;;;;;;;;17.30;99.90;17.50;99802.00;;;;340578;28;83444;-91
2021/09/27 00:32:34;;;;;;;;;;;17.30;99.90;17.50;99802.00;;;;340418;28;90314;-91
2021/09/27 00:32:46;;;;;;;;;;;17.30;99.90;17.40;99804.00;;;;340825;28;82434;-91
2021/09/27 00:32:57;;;;;;;;;;;17.30;99.90;17.40;99812.00;;;;343031;28;90476;-91
2021/09/27 00:33:09;;;;;;;;;;;17.30;99.90;17.50;99808.00;;;;343358;28;82440;-91
2021/09/27 00:33:22;;;;;;;;;;;17.30;99.90;17.40;99804.00;;;;340341;28;90561;-91
2021/09/27 00:33:34;;;;;;;;;;;17.30;99.90;17.40;99798.00;;;;343074;28;82467;-91
2021/09/27 00:33:46;;;;;;;;;;;17.30;99.90;17.30;99811.00;;;;344332;28;90540;-90
2021/09/27 00:33:57;;;;;;;;;;;17.30;99.90;17.20;99799.00;;;;343406;28;83408;-91
2021/09/27 00:34:09;;;;;;;;;;;17.30;99.90;17.20;99810.00;;;;342975;28;91331;-91
2021/09/27 00:34:21;;;;;;;;;;;17.30;99.90;17.20;99805.00;;;;341814;28;83514;-91
2021/09/27 00:34:33;;;;;;;;;;;17.30;99.90;17.10;99806.00;;;;341171;28;89932;-91
2021/09/27 00:34:44;;;;;;;;;;;17.20;99.90;17.10;99801.00;;;;343310;28;82463;-91
2021/09/27 00:34:56;;;;;;;;;;;17.20;99.90;17.10;99805.00;;;;341632;28;90318;-91
2021/09/27 00:35:09;;;;;;;;;;;17.20;99.90;17.10;99795.00;;;;344041;28;82527;-91
2021/09/27 00:35:23;;;;;;;;;;;17.20;99.90;17.00;99804.00;;;;342748;28;90602;-90
2021/09/27 00:35:36;;;;;;;;;;;17.20;99.90;17.00;99802.00;;;;345111;28;82559;-90
2021/09/27 00:35:48;;;;;;;;;;;17.20;99.90;17.00;99804.00;;;;342931;28;90529;-90
2021/09/27 00:36:00;;;;;;;;;;;17.20;99.90;17.00;99805.00;;;;343546;28;82483;-90
2021/09/27 00:36:12;;;;;;;;;;;17.20;99.90;17.00;99803.00;;;;344255;28;90681;-91
2021/09/27 00:36:24;;;;;;;;;;;17.20;99.90;17.00;99803.00;;;;344734;28;82492;-92
2021/09/27 00:36:35;;;;;;;;;;;17.20;99.90;17.00;99799.00;;;;345695;28;89461;-90
2021/09/27 00:36:47;;;;;;;;;;;17.20;99.90;17.00;99799.00;;;;343653;28;83293;-91
2021/09/27 00:36:59;;;;;;;;;;;17.20;99.90;17.10;99807.00;;;;344558;28;88386;-90
2021/09/27 00:37:11;;;;;;;;;;;17.20;99.90;17.10;99801.00;;;;344767;28;82584;-91
2021/09/27 00:37:23;;;;;;;;;;;17.20;99.90;17.10;99807.00;;;;344221;28;89561;-91
2021/09/27 00:37:34;;;;;;;;;;;17.20;99.90;17.00;99805.00;;;;342220;28;82401;-91
2021/09/27 00:37:47;;;;;;;;;;;17.20;99.90;17.00;99805.00;;;;345305;28;90781;-90
2021/09/27 00:37:59;;;;;;;;;;;17.20;99.90;17.00;99802.00;;;;342011;28;82547;-92
2021/09/27 00:38:11;;;;;;;;;;;17.10;99.90;17.00;99800.00;;;;345491;28;90386;-91
2021/09/27 00:38:23;;;;;;;;;;;17.10;99.90;17.00;99802.00;;;;343011;28;82544;-91
2021/09/27 00:38:35;;;;;;;;;;;17.10;99.90;17.00;99807.00;;;;343395;28;90608;-91
2021/09/27 00:38:46;;;;;;;;;;;17.10;99.90;17.00;99797.00;;;;343492;28;83410;-90
2021/09/27 00:38:59;;;;;;;;;;;17.10;99.90;17.10;99801.00;;;;342939;28;90093;-90
2021/09/27 00:39:10;;;;;;;;;;;17.10;99.90;17.10;99805.00;;;;343220;28;83573;-90
2021/09/27 00:39:22;;;;;;;;;;;17.10;99.90;17.00;99805.00;;;;345557;28;89151;-92
2021/09/27 00:39:34;;;;;;;;;;;17.10;99.90;17.00;99804.00;;;;345044;28;82495;-91
2021/09/27 00:39:46;;;;;;;;;;;17.10;99.90;17.10;99807.00;;;;343037;28;90548;-91
2021/09/27 00:39:57;;;;;;;;;;;17.10;99.90;17.10;99806.00;;;;343446;28;82567;-92
2021/09/27 00:40:11;;;;;;;;;;;17.10;99.90;17.10;99805.00;;;;342889;28;90722;-89
2021/09/27 00:40:27;;;;;;;;;;;17.10;99.90;17.10;99807.00;;;;344741;28;83570;-91
2021/09/27 00:40:41;;;;;;;;;;;17.00;99.90;17.10;99800.00;;;;341895;28;90364;-90
2021/09/27 00:40:58;;;;;;;;;;;17.10;99.90;17.10;99803.00;;;;343412;28;82500;-91
2021/09/27 00:41:12;;;;;;;;;;;17.10;99.90;17.10;99807.00;;;;341773;28;90247;-89
2021/09/27 00:41:24;;;;;;;;;;;17.00;99.90;17.10;99806.00;;;;343365;28;82542;-92
2021/09/27 00:41:36;;;;;;;;;;;17.10;99.90;17.10;99804.00;;;;341561;28;90456;-91
2021/09/27 00:41:48;;;;;;;;;;;17.00;99.90;17.10;99804.00;;;;344885;28;82584;-91
2021/09/27 00:42:00;;;;;;;;;;;17.00;99.90;17.10;99809.00;;;;345370;28;90768;-92
2021/09/27 00:42:12;;;;;;;;;;;17.00;99.90;17.20;99818.00;;;;343406;28;82474;-90
2021/09/27 00:42:23;;;;;;;;;;;17.00;99.90;17.20;99812.00;;;;343775;28;90471;-91
2021/09/27 00:42:35;;;;;;;;;;;17.00;99.90;17.30;99810.00;;;;341869;28;82569;-92
2021/09/27 00:42:47;;;;;;;;;;;17.00;99.90;17.20;99804.00;;;;342852;28;90633;-91
2021/09/27 00:42:59;;;;;;;;;;;17.00;99.90;17.20;99805.00;;;;343165;28;82397;-91
2021/09/27 00:43:11;;;;;;;;;;;17.00;99.90;17.20;99807.00;;;;341283;28;91150;-90
2021/09/27 00:43:23;;;;;;;;;;;17.00;99.90;17.20;99802.00;;;;343390;28;82551;-91
2021/09/27 00:43:36;;;;;;;;;;;17.00;99.90;17.20;99800.00;;;;341390;28;89674;-90
2021/09/27 00:43:48;;;;;;;;;;;17.00;99.90;17.30;99808.00;;;;341913;28;82679;-90
2021/09/27 00:44:00;;;;;;;;;;;17.00;99.90;17.40;99807.00;;;;341488;28;91435;-91
2021/09/27 00:44:12;;;;;;;;;;;17.10;99.90;17.30;99804.00;;;;342109;28;82487;-91
2021/09/27 00:44:24;;;;;;;;;;;17.10;99.90;17.40;99806.00;;;;342441;28;92545;-91
2021/09/27 00:44:36;;;;;;;;;;;17.10;99.90;17.30;99809.00;;;;345148;28;83585;-92
2021/09/27 00:44:48;;;;;;;;;;;17.10;99.90;17.30;99811.00;;;;344337;28;90300;-90
2021/09/27 00:45:00;;;;;;;;;;;17.10;99.90;17.40;99800.00;;;;342773;28;82632;-92
2021/09/27 00:45:12;;;;;;;;;;;17.10;99.90;17.30;99807.00;;;;344282;28;90457;-91
2021/09/27 00:45:26;;;;;;;;;;;17.10;99.90;17.40;99818.00;;;;345872;28;83378;-91
2021/09/27 00:45:44;;;;;;;;;;;17.10;99.90;17.50;99811.00;;;;342635;28;90693;-91
2021/09/27 00:45:58;;;;;;;;;;;17.10;99.90;17.40;99810.00;;;;342819;28;82517;-91
2021/09/27 00:46:12;;;;;;;;;;;17.10;99.90;17.40;99810.00;;;;346650;28;90211;-90
2021/09/27 00:46:25;;;;;;;;;;;17.10;99.90;17.40;99806.00;;;;344734;28;82458;-90
2021/09/27 00:46:37;;;;;;;;;;;17.10;99.90;17.50;99811.00;;;;346898;28;90922;-91
2021/09/27 00:46:49;;;;;;;;;;;17.10;99.90;17.50;99806.00;;;;344683;28;82523;-91
2021/09/27 00:47:01;;;;;;;;;;;17.10;99.90;17.50;99811.00;;;;342626;28;90444;-90
2021/09/27 00:47:13;;;;;;;;;;;17.10;99.90;17.50;99807.00;;;;344565;28;82604;-91
2021/09/27 00:47:25;;;;;;;;;;;17.20;99.90;17.50;99809.00;;;;342386;28;89473;-90
2021/09/27 00:47:37;;;;;;;;;;;17.20;99.90;17.50;99805.00;;;;343066;28;82632;-90
2021/09/27 00:47:49;;;;;;;;;;;17.20;99.90;17.40;99817.00;;;;344289;28;89389;-89
2021/09/27 00:48:01;;;;;;;;;;;17.20;99.90;17.30;99813.00;;;;347179;28;82631;-91
2021/09/27 00:48:12;;;;;;;;;;;17.20;99.90;17.30;99813.00;;;;346693;28;89542;-91
2021/09/27 00:48:25;;;;;;;;;;;17.20;99.90;17.20;99817.00;;;;344463;28;82599;-91
2021/09/27 00:48:37;;;;;;;;;;;17.20;99.90;17.20;99809.00;;;;346863;28;91398;-91
2021/09/27 00:48:49;;;;;;;;;;;17.20;99.90;17.20;99806.00;;;;343791;28;82653;-91
2021/09/27 00:49:01;;;;;;;;;;;17.20;99.90;17.10;99808.00;;;;341641;28;91301;-91
2021/09/27 00:49:13;;;;;;;;;;;17.10;99.90;17.10;99819.00;;;;346126;28;83464;-91
2021/09/27 00:49:24;;;;;;;;;;;17.10;99.90;17.10;99807.00;;;;341777;28;91210;-91
2021/09/27 00:49:36;;;;;;;;;;;17.10;99.90;17.10;99803.00;;;;341970;28;83411;-91
2021/09/27 00:49:49;;;;;;;;;;;17.10;99.90;17.10;99805.00;;;;341465;28;91722;-91
2021/09/27 00:50:00;;;;;;;;;;;17.10;99.90;17.10;99817.00;;;;343215;28;82570;-91
2021/09/27 00:50:13;;;;;;;;;;;17.10;99.90;17.10;99811.00;;;;341309;28;89542;-91
2021/09/27 00:50:27;;;;;;;;;;;17.10;99.90;17.10;99802.00;;;;340811;28;83488;-91
2021/09/27 00:50:42;;;;;;;;;;;17.10;99.90;17.10;99810.00;;;;342510;28;90734;-91
2021/09/27 00:51:00;;;;;;;;;;;17.10;99.90;17.10;99813.00;;;;343220;28;82511;-91
2021/09/27 00:51:19;;;;;;;;;;;17.10;99.90;17.10;99805.00;;;;342910;28;89126;-91
2021/09/27 00:51:34;;;;;;;;;;;17.10;99.90;17.00;99813.00;;;;344657;28;82489;-92
2021/09/27 00:51:46;;;;;;;;;;;17.00;99.90;17.00;99818.00;;;;341721;28;86604;-91
2021/09/27 00:51:58;;;;;;;;;;;17.10;99.90;17.00;99811.00;;;;344525;28;83476;-91
2021/09/27 00:52:09;;;;;;;;;;;17.00;99.90;17.00;99804.00;;;;341515;28;89527;-90
2021/09/27 00:52:21;;;;;;;;;;;17.00;99.90;16.90;99818.00;;;;343071;28;83419;-91
2021/09/27 00:52:33;;;;;;;;;;;17.00;99.90;17.00;99810.00;;;;340110;28;91103;-91
2021/09/27 00:52:45;;;;;;;;;;;17.00;99.90;17.00;99806.00;;;;343386;28;82526;-91
2021/09/27 00:52:57;;;;;;;;;;;17.00;99.90;17.10;99810.00;;;;341510;28;91728;-92
2021/09/27 00:53:14;;;;;;;;;;;17.00;99.90;17.10;99808.00;;;;344443;28;83559;-91
2021/09/27 00:53:33;;;;;;;;;;;17.00;99.90;17.10;99811.00;;;;344156;28;91295;-91
2021/09/27 00:54:00;;;;;;;;;;;17.00;99.90;17.00;99819.00;;;;343125;28;83568;-91
2021/09/27 00:54:18;;;;;;;;;;;17.00;99.90;17.00;99818.00;;;;342828;28;89677;-91
2021/09/27 00:54:32;;;;;;;;;;;17.00;99.90;17.00;99813.00;;;;345645;28;83550;-90
2021/09/27 00:54:44;;;;;;;;;;;17.00;99.90;17.10;99822.00;;;;342764;28;89482;-91
2021/09/27 00:54:56;;;;;;;;;;;17.00;99.90;17.00;99822.00;;;;343437;28;82474;-92
2021/09/27 00:55:10;;;;;;;;;;;16.90;99.90;17.10;99820.00;;;;344226;28;90501;-91
2021/09/27 00:55:22;;;;;;;;;;;17.00;99.90;17.00;99821.00;;;;343130;28;82599;-92
2021/09/27 00:55:34;;;;;;;;;;;17.00;99.90;17.10;99821.00;;;;342648;28;90353;-91
2021/09/27 00:55:46;;;;;;;;;;;17.00;99.90;17.10;99820.00;;;;341618;28;83544;-92
2021/09/27 00:55:58;;;;;;;;;;;17.00;99.90;17.10;99810.00;;;;342933;28;90285;-90
2021/09/27 00:56:10;;;;;;;;;;;17.00;99.90;17.10;99820.00;;;;343357;28;83389;-91
2021/09/27 00:56:28;;;;;;;;;;;17.00;99.90;17.00;99812.00;;;;341156;28;90511;-91
2021/09/27 00:56:43;;;;;;;;;;;17.00;99.90;17.00;99818.00;;;;341729;28;83556;-91
2021/09/27 00:56:58;;;;;;;;;;;17.00;99.90;17.00;99817.00;;;;341637;28;91138;-90
2021/09/27 00:57:15;;;;;;;;;;;17.00;99.90;17.10;99818.00;;;;344376;28;83484;-91
2021/09/27 00:57:27;;;;;;;;;;;17.00;99.90;17.10;99813.00;;;;343125;28;90996;-91
2021/09/27 00:57:38;;;;;;;;;;;16.90;99.90;17.10;99806.00;;;;346040;28;83552;-91
2021/09/27 00:57:51;;;;;;;;;;;16.90;99.90;17.10;99809.00;;;;342526;28;90336;-91
2021/09/27 00:58:03;;;;;;;;;;;16.90;99.90;17.10;99812.00;;;;343183;28;82639;-91
2021/09/27 00:58:15;;;;;;;;;;;17.00;99.90;17.00;99804.00;;;;344361;28;90587;-91
2021/09/27 00:58:27;;;;;;;;;;;17.00;99.90;17.00;99818.00;;;;343039;28;83587;-91
2021/09/27 00:58:39;;;;;;;;;;;17.00;99.90;17.00;99804.00;;;;341458;28;91694;-90
2021/09/27 00:58:51;;;;;;;;;;;17.00;99.90;17.00;99807.00;;;;344467;28;82547;-91
2021/09/27 00:59:03;;;;;;;;;;;17.00;99.90;17.00;99806.00;;;;341369;28;90632;-91
2021/09/27 00:59:15;;;;;;;;;;;17.00;99.90;17.00;99809.00;;;;342048;28;83253;-91
2021/09/27 00:59:27;;;;;;;;;;;16.90;99.90;17.00;99813.00;;;;342499;28;90307;-91
2021/09/27 00:59:42;;;;;;;;;;;16.90;99.90;17.10;99808.00;;;;341834;28;82657;-90
2021/09/27 00:59:55;;;;;;;;;;;16.90;99.90;17.20;99811.00;;;;341241;28;90455;-91
2021/09/27 01:00:08;;;;;;;;;;;16.90;99.90;17.20;99813.00;;;;341867;28;83330;-91
2021/09/27 01:00:24;;;;;;;;;;;16.90;99.90;17.20;99805.00;;;;338736;28;91686;-91
2021/09/27 01:00:36;;;;;;;;;;;17.00;99.90;17.30;99807.00;;;;341948;28;82473;-91
2021/09/27 01:00:48;;;;;;;;;;;17.00;99.90;17.30;99802.00;;;;341585;28;92018;-91
2021/09/27 01:01:00;;;;;;;;;;;17.00;99.90;17.30;99808.00;;;;340401;28;83627;-91
2021/09/27 01:01:12;;;;;;;;;;;17.00;99.90;17.30;99811.00;;;;338771;28;90679;-91
2021/09/27 01:01:24;;;;;;;;;;;17.00;99.90;17.20;99806.00;;;;342039;28;83216;-91
2021/09/27 01:01:36;;;;;;;;;;;17.00;99.90;17.20;99806.00;;;;341560;28;90198;-91
2021/09/27 01:01:48;;;;;;;;;;;17.00;99.90;17.10;99817.00;;;;341721;28;83591;-91
2021/09/27 01:02:00;;;;;;;;;;;17.00;99.90;17.10;99806.00;;;;340250;28;89077;-91
2021/09/27 01:02:12;;;;;;;;;;;17.00;99.90;17.10;99813.00;;;;343405;28;83386;-91
2021/09/27 01:02:25;;;;;;;;;;;17.00;99.90;17.10;99808.00;;;;343538;28;90889;-91
2021/09/27 01:02:37;;;;;;;;;;;17.00;99.90;17.10;99806.00;;;;340412;28;83531;-91